Time;durP1;ratioP1;P1;durP2;ratioP2;P2;SDS_P1;SDS_P2;PMS_P1;PMS_P2;Temp;Humidity;BMP_temperature;BMP_pressure;BME280_temperature;BME280_humidity;BME280_pressure;Samples;Min_cycle;Max_cycle;Signal;HPM_P1;HPM_P2
2022/12/28 00:01:05;;;;;;;1.73;1.03;;;;;;;;;;21081963;28;20768;-69
2022/12/28 00:11:08;;;;;;;2.30;1.37;;;;;;;;;;21072195;28;20313;-69
2022/12/28 00:21:10;;;;;;;2.03;1.00;;;;;;;;;;21060153;28;20236;-69
2022/12/28 00:31:12;;;;;;;1.90;1.03;;;;;;;;;;21070076;28;20301;-69
2022/12/28 00:41:14;;;;;;;6.30;1.67;;;;;;;;;;21070043;28;20216;-69
2022/12/28 00:51:18;;;;;;;2.10;1.20;;;;;;;;;;21077202;28;20748;-68
2022/12/28 01:01:21;;;;;;;0.40;0.40;;;;;;;;;;21076119;28;20263;-69
2022/12/28 01:11:25;;;;;;;1.40;0.60;;;3.40;99.90;;;;;;21060796;28;20212;-69
2022/12/28 01:21:30;;;;;;;4.60;1.17;;;3.50;99.90;;;;;;21066471;28;20785;-69
2022/12/28 01:31:32;;;;;;;1.67;1.07;;;;;;;;;;21074709;28;20200;-69
2022/12/28 01:41:36;;;;;;;4.23;1.20;;;;;;;;;;21073713;28;20216;-69
2022/12/28 01:51:48;;;;;;;4.87;1.43;;;;;;;;;;21079602;28;20224;-69
2022/12/28 02:01:50;;;;;;;2.83;1.60;;;;;;;;;;21155687;28;20207;-69
2022/12/28 02:11:52;;;;;;;0.57;0.50;;;;;;;;;;21120224;28;20246;-69
2022/12/28 02:22:31;;;;;;;0.57;0.50;;;3.90;99.90;;;;;;21135843;28;20208;-69
2022/12/28 02:32:38;;;;;;;1.07;0.67;;;3.90;99.90;;;;;;21135927;28;20281;-69
2022/12/28 02:42:42;;;;;;;2.00;1.13;;;4.10;99.90;;;;;;21059921;28;20209;-69
2022/12/28 02:53:03;;;;;;;1.80;1.13;;;;;;;;;;21022313;28;20760;-69
2022/12/28 03:03:05;;;;;;;1.20;0.80;;;;;;;;;;21067878;28;20200;-70
2022/12/28 03:13:41;;;;;;;1.13;0.70;;;;;;;;;;21048133;28;20228;-69
2022/12/28 03:34:05;;;;;;;2.63;0.53;;;;;;;;;;21049172;28;20212;-69
2022/12/28 03:44:16;;;;;;;1.00;0.70;;;4.20;99.90;;;;;;21032122;28;20216;-69
2022/12/28 03:54:19;;;;;;;1.33;0.70;;;;;;;;;;21047041;28;20224;-69
2022/12/28 04:04:21;;;;;;;0.60;0.50;;;;;;;;;;21047477;28;20752;-69
2022/12/28 04:14:24;;;;;;;0.47;0.43;;;;;;;;;;21029991;28;20277;-69
2022/12/28 04:24:26;;;;;;;0.40;0.30;;;;;;;;;;21050009;28;20683;-69
2022/12/28 04:34:28;;;;;;;0.10;0.10;;;;;;;;;;21061500;28;20691;-69
2022/12/28 04:44:44;;;;;;;0.50;0.30;;;;;;;;;;21060688;28;20204;-69
2022/12/28 04:54:45;;;;;;;0.47;0.40;;;;;;;;;;21078223;28;20246;-69
2022/12/28 05:04:47;;;;;;;1.13;0.50;;;;;;;;;;21077307;28;20208;-69
2022/12/28 05:14:49;;;;;;;0.40;0.30;;;;;;;;;;21056852;28;20212;-69
2022/12/28 05:24:50;;;;;;;0.30;0.30;;;;;;;;;;21066885;28;20213;-69
2022/12/28 05:34:52;;;;;;;1.30;0.80;;;;;;;;;;21087836;22;20236;-85
2022/12/28 05:44:54;;;;;;;0.67;0.47;;;;;;;;;;21022929;28;20204;-86
2022/12/28 05:54:56;;;;;;;0.67;0.20;;;;;;;;;;21049641;28;20228;-85
2022/12/28 06:04:58;;;;;;;0.50;0.40;;;;;;;;;;21047415;28;20277;-84
2022/12/28 06:14:59;;;;;;;0.40;0.30;;;;;;;;;;21030417;28;20248;-84
2022/12/28 06:25:01;;;;;;;1.17;0.53;;;;;;;;;;21062451;28;20208;-84
2022/12/28 06:35:03;;;;;;;0.73;0.30;;;;;;;;;;21027218;28;20286;-83
2022/12/28 06:45:05;;;;;;;1.13;1.03;;;;;;;;;;21059799;28;20255;-82
2022/12/28 06:55:07;;;;;;;1.23;0.43;;;;;;;;;;21042912;28;20236;-84
2022/12/28 07:05:09;;;;;;;1.80;0.30;;;;;;;;;;21042379;28;20209;-84
2022/12/28 07:15:10;;;;;;;0.70;0.30;;;;;;;;;;21046227;28;20232;-85
2022/12/28 07:25:13;;;;;;;0.67;0.47;;;;;;;;;;21019589;28;20216;-84
2022/12/28 07:35:15;;;;;;;1.83;0.43;;;;;;;;;;21122936;28;20228;-85
2022/12/28 07:45:16;;;;;;;0.40;0.30;;;;;;;;;;21068765;28;20581;-83
2022/12/28 07:55:18;;;;;;;0.10;0.10;;;;;;;;;;21080612;28;20232;-84
2022/12/28 08:05:20;;;;;;;0.90;0.40;;;;;;;;;;21074515;28;20228;-85
2022/12/28 08:15:22;;;;;;;0.37;0.20;;;;;;;;;;20988710;28;20220;-85
2022/12/28 08:25:24;;;;;;;0.43;0.43;;;;;;;;;;21040269;28;20274;-85
2022/12/28 08:35:26;;;;;;;0.20;0.20;;;;;;;;;;21169326;28;20432;-85
2022/12/28 08:45:28;;;;;;;0.47;0.20;;;;;;;;;;21142623;28;20216;-85
2022/12/28 08:55:30;;;;;;;0.50;0.40;;;;;;;;;;21118856;28;20223;-85
2022/12/28 09:05:32;;;;;;;0.20;0.20;;;;;;;;;;21070759;28;20246;-84
2022/12/28 09:15:33;;;;;;;0.50;0.20;;;;;;;;;;21182899;28;20240;-86
2022/12/28 09:35:47;;;;;;;0.20;0.20;;;;;;;;;;21240924;27;20565;-67
2022/12/28 09:45:50;;;;;;;0.13;0.13;;;;;;;;;;21166814;28;20762;-67
2022/12/28 09:56:18;;;;;;;0.10;0.10;;;;;;;;;;21172553;28;20614;-67
2022/12/28 10:06:31;;;;;;;1.50;0.40;;;6.50;99.90;;;;;;21149888;28;20829;-67
2022/12/28 10:16:35;;;;;;;0.10;0.10;;;;;;;;;;21189194;28;20219;-67
2022/12/28 10:26:37;;;;;;;0.23;0.23;;;6.60;99.90;;;;;;21187932;27;20227;-67
2022/12/28 10:36:39;;;;;;;0.20;0.20;;;7.90;99.90;;;;;;21203847;28;20615;-67
2022/12/28 10:47:00;;;;;;;0.20;0.20;;;7.10;99.90;;;;;;21114604;28;20232;-67
2022/12/28 10:57:03;;;;;;;0.50;0.20;;;;;;;;;;21097396;28;20257;-66
2022/12/28 11:07:05;;;;;;;0.20;0.20;;;;;;;;;;21110927;28;20269;-66
2022/12/28 11:17:18;;;;;;;0.23;0.20;;;;;;;;;;21095197;28;20545;-66
2022/12/28 11:27:22;;;;;;;0.87;0.40;;;7.60;99.90;;;;;;21098797;28;20277;-66
2022/12/28 11:37:23;;;;;;;0.33;0.20;;;;;;;;;;20744715;23;20261;-69
2022/12/28 11:47:31;;;;;;;1.03;0.60;;;;;;;;;;20743181;28;20261;-71
2022/12/28 11:57:41;;;;;;;0.30;0.30;;;8.20;99.90;;;;;;20741063;28;20273;-69
2022/12/28 12:07:46;;;;;;;0.47;0.20;;;8.90;99.90;;;;;;20742144;28;20215;-70
2022/12/28 12:17:51;;;;;;;0.30;0.30;;;;;;;;;;20740128;28;20211;-70
2022/12/28 12:28:00;;;;;;;0.60;0.50;;;8.10;99.90;;;;;;20740346;28;20207;-70
2022/12/28 12:38:20;;;;;;;0.77;0.30;;;;;;;;;;20753038;28;20296;-70
2022/12/28 12:48:40;;;;;;;0.53;0.23;;;;;;;;;;20786098;28;20218;-70
2022/12/28 12:59:09;;;;;;;0.20;0.20;;;7.90;99.90;;;;;;20811517;28;20542;-70
2022/12/28 13:09:16;;;;;;;0.50;0.30;;;;;;;;;;20809156;28;20272;-70
2022/12/28 13:19:19;;;;;;;0.73;0.40;;;;;;;;;;20799749;28;20206;-70
2022/12/28 13:29:23;;;;;;;0.73;0.23;;;;;;;;;;20817154;28;20272;-71
2022/12/28 13:39:27;;;;;;;0.30;0.30;;;;;;;;;;20795938;28;20215;-70
2022/12/28 13:49:32;;;;;;;2.57;0.70;;;;;;;;;;20782718;28;20293;-70
2022/12/28 13:59:35;;;;;;;0.67;0.27;;;;;;;;;;20775710;28;20277;-70
2022/12/28 14:09:38;;;;;;;3.47;0.27;;;;;;;;;;20729569;28;20239;-70
2022/12/28 14:19:40;;;;;;;0.33;0.20;;;8.00;99.90;;;;;;20805969;28;20710;-70
2022/12/28 14:29:42;;;;;;;0.57;0.37;;;;;;;;;;20826308;28;20218;-69
2022/12/28 14:39:45;;;;;;;0.57;0.30;;;;;;;;;;20799483;28;20699;-69
2022/12/28 14:49:47;;;;;;;0.40;0.30;;;;;;;;;;20751245;28;20242;-70
2022/12/28 14:59:59;;;;;;;1.20;0.53;;;8.00;99.90;;;;;;20791214;28;20223;-70
2022/12/28 15:10:01;;;;;;;0.43;0.33;;;;;;;;;;20804323;28;20226;-70
2022/12/28 15:20:04;;;;;;;0.80;0.33;;;;;;;;;;20811881;28;20230;-69
2022/12/28 15:30:06;;;;;;;1.20;0.20;;;8.00;99.90;;;;;;20801427;28;20587;-69
2022/12/28 15:40:08;;;;;;;0.83;0.30;;;;;;;;;;20789151;28;20223;-71
2022/12/28 15:50:10;;;;;;;0.23;0.23;;;7.80;99.90;;;;;;20802017;28;20319;-71
2022/12/28 16:00:17;;;;;;;0.20;0.20;;;7.80;99.90;;;;;;20822851;28;20202;-69
2022/12/28 16:10:19;;;;;;;0.80;0.40;;;;;;;;;;20821027;28;20218;-70
2022/12/28 16:20:21;;;;;;;0.20;0.20;;;;;;;;;;20821469;28;20257;-70
2022/12/28 16:30:23;;;;;;;0.70;0.30;;;;;;;;;;20803774;28;20215;-71
2022/12/28 16:40:24;;;;;;;0.37;0.30;;;;;;;;;;20819352;28;20214;-70
2022/12/28 16:50:26;;;;;;;0.20;0.20;;;;;;;;;;20818652;28;20234;-70
2022/12/28 17:00:28;;;;;;;1.10;0.50;;;;;;;;;;20791492;28;20284;-70
2022/12/28 17:10:30;;;;;;;2.10;0.60;;;7.80;99.90;;;;;;20801401;28;20640;-70
2022/12/28 17:20:32;;;;;;;0.60;0.27;;;;;;;;;;20809366;28;20755;-71
2022/12/28 17:30:34;;;;;;;2.00;0.40;;;;;;;;;;20796082;28;20576;-71
2022/12/28 17:40:37;;;;;;;1.03;0.40;;;;;;;;;;20816844;28;20578;-71
2022/12/28 17:50:43;;;;;;;0.80;0.33;;;;;;;;;;20821140;28;20230;-71
2022/12/28 18:00:45;;;;;;;0.50;0.33;;;;;;;;;;20855710;22;20260;-72
2022/12/28 18:10:47;;;;;;;1.97;0.70;;;;;;;;;;20876561;28;20284;-72
2022/12/28 18:21:00;;;;;;;1.37;0.77;;;7.90;99.90;;;;;;20803032;28;20248;-72
2022/12/28 18:31:03;;;;;;;0.30;0.30;;;7.70;99.90;;;;;;20816670;28;20236;-72
2022/12/28 18:41:05;;;;;;;0.77;0.43;;;;;;;;;;20802876;28;20265;-72
2022/12/28 18:51:11;;;;;;;0.30;0.20;;;;;;;;;;20802598;28;20227;-73
2022/12/28 19:01:18;;;;;;;0.50;0.30;;;;;;;;;;20788255;28;20245;-72
2022/12/28 19:11:20;;;;;;;0.93;0.63;;;;;;;;;;20823701;28;20227;-72
2022/12/28 19:21:26;;;;;;;0.30;0.30;;;;;;;;;;20762905;28;20729;-72
2022/12/28 19:31:28;;;;;;;0.70;0.50;;;;;;;;;;20759469;28;20214;-68
2022/12/28 19:41:30;;;;;;;0.23;0.20;;;;;;;;;;20871999;28;20207;-69
2022/12/28 19:51:33;;;;;;;0.90;0.40;;;;;;;;;;20767262;28;20293;-69
2022/12/28 20:01:37;;;;;;;0.50;0.30;;;;;;;;;;20802667;28;20222;-69
2022/12/28 20:11:39;;;;;;;0.47;0.30;;;7.90;99.90;;;;;;20737090;28;20353;-69
2022/12/28 20:21:41;;;;;;;0.40;0.20;;;;;;;;;;20815676;28;20567;-67
2022/12/28 20:31:43;;;;;;;2.63;0.50;;;;;;;;;;20802810;28;20241;-67
2022/12/28 20:52:05;;;;;;;0.57;0.30;;;;;;;;;;20818883;28;20218;-69
2022/12/28 21:02:09;;;;;;;0.73;0.63;;;8.30;99.90;;;;;;20804507;28;20279;-69
2022/12/28 21:12:11;;;;;;;0.83;0.50;;;;;;;;;;20791062;28;20515;-69
2022/12/28 21:22:12;;;;;;;0.40;0.40;;;;;;;;;;20819204;28;20206;-69
2022/12/28 21:32:14;;;;;;;0.53;0.43;;;;;;;;;;20817389;28;20277;-69
2022/12/28 21:42:16;;;;;;;0.30;0.30;;;;;;;;;;20792893;28;20207;-69
2022/12/28 21:52:17;;;;;;;1.47;0.63;;;;;;;;;;20808072;28;20226;-69
2022/12/28 22:12:40;;;;;;;0.70;0.43;;;8.30;99.90;;;;;;20814859;28;20269;-69
2022/12/28 22:22:42;;;;;;;0.57;0.40;;;8.30;99.90;;;;;;20800185;28;20203;-70
2022/12/28 22:32:44;;;;;;;0.87;0.60;;;;;;;;;;20816373;28;20278;-69
2022/12/28 22:42:47;;;;;;;1.43;0.20;;;8.30;99.90;;;;;;20829557;28;20253;-69
2022/12/28 22:52:49;;;;;;;1.00;0.43;;;;;;;;;;20828987;28;20235;-69
2022/12/28 23:02:52;;;;;;;1.13;0.33;;;;;;;;;;20829405;28;20288;-69
2022/12/28 23:12:53;;;;;;;0.73;0.60;;;;;;;;;;20827736;28;20566;-70
2022/12/28 23:33:16;;;;;;;0.20;0.20;;;;;;;;;;20826396;28;20565;-70
2022/12/28 23:43:18;;;;;;;0.20;0.20;;;;;;;;;;20826606;28;20207;-68
2022/12/28 23:53:20;;;;;;;0.13;0.10;;;;;;;;;;20825786;28;20242;-68
